createdAt,value
2019-01-19T00:00:19.104Z,20.53
2019-01-19T00:00:50.729Z,20.52
2019-01-19T00:01:22.359Z,20.51
2019-01-19T00:01:53.984Z,20.49
2019-01-19T00:02:25.594Z,20.49
2019-01-19T00:02:57.257Z,20.49
2019-01-19T00:03:28.884Z,20.48
2019-01-19T00:04:00.508Z,20.47
2019-01-19T00:04:32.129Z,20.46
2019-01-19T00:05:10.229Z,20.46
2019-01-19T00:05:35.428Z,20.45
2019-01-19T00:06:07.039Z,20.44
2019-01-19T00:06:38.664Z,20.44
2019-01-19T00:07:10.275Z,20.43
2019-01-19T00:07:41.885Z,20.42
2019-01-19T00:08:13.534Z,20.41
2019-01-19T00:08:45.130Z,20.41
2019-01-19T00:09:16.724Z,20.41
2019-01-19T00:09:48.345Z,20.40
2019-01-19T00:10:19.965Z,20.39
2019-01-19T00:10:51.593Z,20.37
2019-01-19T00:11:23.208Z,20.38
2019-01-19T00:11:54.813Z,20.35
2019-01-19T00:12:26.435Z,20.37
2019-01-19T00:12:58.056Z,20.36
2019-01-19T00:13:29.710Z,20.35
2019-01-19T00:14:01.315Z,20.35
2019-01-19T00:14:32.935Z,20.35
2019-01-19T00:15:04.527Z,20.34
2019-01-19T00:15:36.142Z,20.33
2019-01-19T00:16:07.768Z,20.33
2019-01-19T00:16:39.400Z,20.31
2019-01-19T00:17:11.022Z,20.33
2019-01-19T00:17:42.652Z,20.32
2019-01-19T00:18:14.261Z,20.32
2019-01-19T00:18:45.903Z,20.32
2019-01-19T00:19:17.511Z,20.32
2019-01-19T00:19:49.178Z,20.18
2019-01-19T00:20:20.804Z,20.33
2019-01-19T00:20:52.413Z,20.34
2019-01-19T00:21:24.040Z,20.34
2019-01-19T00:21:55.682Z,20.34
2019-01-19T00:22:27.302Z,20.35
2019-01-19T00:22:58.938Z,20.36
2019-01-19T00:23:30.543Z,20.36
2019-01-19T00:24:02.149Z,20.37
2019-01-19T00:24:33.766Z,20.38
2019-01-19T00:25:05.419Z,20.40
2019-01-19T00:25:37.044Z,20.41
2019-01-19T00:26:08.677Z,20.42
2019-01-19T00:26:40.284Z,20.44
2019-01-19T00:27:11.912Z,20.45
2019-01-19T00:27:43.533Z,20.48
2019-01-19T00:28:15.143Z,20.49
2019-01-19T00:28:46.764Z,20.51
2019-01-19T00:29:18.385Z,20.54
2019-01-19T00:29:49.996Z,20.56
2019-01-19T00:30:21.650Z,20.59
2019-01-19T00:30:53.259Z,20.61
2019-01-19T00:31:24.900Z,20.64
2019-01-19T00:31:56.521Z,20.67
2019-01-19T00:32:28.123Z,20.69
2019-01-19T00:32:59.738Z,20.73
2019-01-19T00:33:31.362Z,20.76
2019-01-19T00:34:02.992Z,20.79
2019-01-19T00:34:34.623Z,20.82
2019-01-19T00:35:06.260Z,20.84
2019-01-19T00:35:37.872Z,20.86
2019-01-19T00:36:09.483Z,20.89
2019-01-19T00:36:41.148Z,20.92
2019-01-19T00:37:12.744Z,20.93
2019-01-19T00:37:44.365Z,20.95
2019-01-19T00:38:15.994Z,20.97
2019-01-19T00:38:47.587Z,20.77
2019-01-19T00:39:19.202Z,21.00
2019-01-19T00:39:50.824Z,21.00
2019-01-19T00:40:22.443Z,21.02
2019-01-19T00:40:54.066Z,21.03
2019-01-19T00:41:25.688Z,21.00
2019-01-19T00:41:57.356Z,21.04
2019-01-19T00:42:28.970Z,21.04
2019-01-19T00:43:00.585Z,21.05
2019-01-19T00:43:32.207Z,21.05
2019-01-19T00:44:03.814Z,21.06
2019-01-19T00:44:35.426Z,21.06
2019-01-19T00:45:07.038Z,21.06
2019-01-19T00:45:38.645Z,21.06
2019-01-19T00:46:10.266Z,21.05
2019-01-19T00:46:41.874Z,21.05
2019-01-19T00:47:13.535Z,21.05
2019-01-19T00:47:45.159Z,21.07
2019-01-19T00:48:16.776Z,21.10
2019-01-19T00:48:48.625Z,21.12
2019-01-19T00:49:20.224Z,21.15
2019-01-19T00:49:51.838Z,21.17
2019-01-19T00:50:23.470Z,21.18
2019-01-19T00:50:55.098Z,21.20
2019-01-19T00:51:26.706Z,21.21
2019-01-19T00:51:58.303Z,21.22
2019-01-19T00:52:29.943Z,21.21
2019-01-19T00:53:01.561Z,21.22
2019-01-19T00:53:33.189Z,21.21
2019-01-19T00:54:04.842Z,21.21
2019-01-19T00:54:36.468Z,21.19
2019-01-19T00:55:08.089Z,21.20
2019-01-19T00:55:39.716Z,21.20
2019-01-19T00:56:11.312Z,21.22
2019-01-19T00:56:42.922Z,21.24
2019-01-19T00:57:14.537Z,21.26
2019-01-19T00:57:46.200Z,21.26
2019-01-19T00:58:17.812Z,21.15
2019-01-19T00:58:49.428Z,21.26
2019-01-19T00:59:21.056Z,21.26
2019-01-19T00:59:52.689Z,21.26
2019-01-19T01:00:24.298Z,21.24
2019-01-19T01:00:55.919Z,21.23
2019-01-19T01:01:27.542Z,21.20
2019-01-19T01:01:59.164Z,21.19
2019-01-19T01:02:30.780Z,21.17
2019-01-19T01:03:02.464Z,21.16
2019-01-19T01:03:34.071Z,21.16
2019-01-19T01:04:05.679Z,21.13
2019-01-19T01:04:37.289Z,21.10
2019-01-19T01:05:08.898Z,21.08
2019-01-19T01:05:40.515Z,21.07
2019-01-19T01:06:12.145Z,21.05
2019-01-19T01:06:43.773Z,21.04
2019-01-19T01:07:15.425Z,21.04
2019-01-19T01:07:47.062Z,21.03
2019-01-19T01:08:18.732Z,21.02
2019-01-19T01:08:50.365Z,21.01
2019-01-19T01:09:21.996Z,20.98
2019-01-19T01:09:53.641Z,20.95
2019-01-19T01:10:25.272Z,20.92
2019-01-19T01:10:56.913Z,20.89
2019-01-19T01:11:28.540Z,20.86
2019-01-19T01:12:00.162Z,20.84
2019-01-19T01:12:31.823Z,20.82
2019-01-19T01:13:03.481Z,20.80
2019-01-19T01:13:35.143Z,20.78
2019-01-19T01:14:06.758Z,20.77
2019-01-19T01:14:38.390Z,20.74
2019-01-19T01:15:10.010Z,20.72
2019-01-19T01:15:41.628Z,20.71
2019-01-19T01:16:13.250Z,20.69
2019-01-19T01:16:44.866Z,20.68
2019-01-19T01:17:16.474Z,20.67
2019-01-19T01:17:48.099Z,20.65
2019-01-19T01:18:19.726Z,20.64
2019-01-19T01:18:51.371Z,20.63
2019-01-19T01:19:23.009Z,20.61
2019-01-19T01:19:54.647Z,20.60
2019-01-19T01:20:26.275Z,20.60
2019-01-19T01:20:57.901Z,20.57
2019-01-19T01:21:29.519Z,20.56
2019-01-19T01:22:01.142Z,20.55
2019-01-19T01:22:32.768Z,20.54
2019-01-19T01:23:04.409Z,20.53
2019-01-19T01:23:36.041Z,20.52
2019-01-19T01:24:07.674Z,20.39
2019-01-19T01:24:39.305Z,20.49
2019-01-19T01:25:10.929Z,20.48
2019-01-19T01:25:42.562Z,20.46
2019-01-19T01:26:14.193Z,20.44
2019-01-19T01:26:45.837Z,20.46
2019-01-19T01:27:17.499Z,20.45
2019-01-19T01:27:49.115Z,20.45
2019-01-19T01:28:20.779Z,20.43
2019-01-19T01:28:52.411Z,20.42
2019-01-19T01:29:24.024Z,20.41
2019-01-19T01:29:55.647Z,20.40
2019-01-19T01:30:27.261Z,20.38
2019-01-19T01:30:58.906Z,20.38
2019-01-19T01:31:30.533Z,20.38
2019-01-19T01:32:02.390Z,20.36
2019-01-19T01:32:34.065Z,20.36
2019-01-19T01:33:05.690Z,20.35
2019-01-19T01:33:37.339Z,20.34
2019-01-19T01:34:08.959Z,20.33
2019-01-19T01:34:40.599Z,20.33
2019-01-19T01:35:12.228Z,20.33
2019-01-19T01:35:43.853Z,20.32
2019-01-19T01:36:15.476Z,20.31
2019-01-19T01:36:47.096Z,20.31
2019-01-19T01:37:18.745Z,20.30
2019-01-19T01:37:50.356Z,20.30
2019-01-19T01:38:21.990Z,20.30
2019-01-19T01:38:53.615Z,20.29
2019-01-19T01:39:25.233Z,20.29
2019-01-19T01:39:56.851Z,20.29
2019-01-19T01:40:28.457Z,20.29
2019-01-19T01:41:00.137Z,20.29
2019-01-19T01:41:31.771Z,20.29
2019-01-19T01:42:03.378Z,20.30
2019-01-19T01:42:34.996Z,20.30
2019-01-19T01:43:06.665Z,20.30
2019-01-19T01:43:38.303Z,20.30
2019-01-19T01:44:09.923Z,20.30
2019-01-19T01:44:41.535Z,20.31
2019-01-19T01:45:13.167Z,20.31
2019-01-19T01:45:44.803Z,20.32
2019-01-19T01:46:16.432Z,20.33
2019-01-19T01:46:48.050Z,20.33
2019-01-19T01:47:19.686Z,20.34
2019-01-19T01:47:51.324Z,20.36
2019-01-19T01:48:23.010Z,20.37
2019-01-19T01:48:54.640Z,20.37
2019-01-19T01:49:26.259Z,20.38
2019-01-19T01:49:57.860Z,20.39
2019-01-19T01:50:29.457Z,20.40
2019-01-19T01:51:01.095Z,20.40
2019-01-19T01:51:32.717Z,20.41
2019-01-19T01:52:04.332Z,20.43
2019-01-19T01:52:35.952Z,20.44
2019-01-19T01:53:07.566Z,20.45
2019-01-19T01:53:39.221Z,20.45
2019-01-19T01:54:10.835Z,20.48
2019-01-19T01:54:42.434Z,20.50
2019-01-19T01:55:14.046Z,20.52
2019-01-19T01:55:45.676Z,20.53
2019-01-19T01:56:17.306Z,20.55
2019-01-19T01:56:48.952Z,20.56
2019-01-19T01:57:20.565Z,20.58
2019-01-19T01:57:52.181Z,20.60
2019-01-19T01:58:23.798Z,20.60
2019-01-19T01:58:55.465Z,20.61
2019-01-19T01:59:27.077Z,20.62
2019-01-19T01:59:58.717Z,20.64
2019-01-19T02:00:30.317Z,20.65
2019-01-19T02:01:01.927Z,20.64
2019-01-19T02:01:33.563Z,20.65
2019-01-19T02:02:05.190Z,20.66
2019-01-19T02:02:36.816Z,20.66
2019-01-19T02:03:08.435Z,20.66
2019-01-19T02:03:40.056Z,20.68
2019-01-19T02:04:11.720Z,20.68
2019-01-19T02:04:43.585Z,20.68
2019-01-19T02:05:15.223Z,20.70
2019-01-19T02:05:46.827Z,20.70
2019-01-19T02:06:18.442Z,20.71
2019-01-19T02:06:50.071Z,20.71
2019-01-19T02:07:21.718Z,20.71
2019-01-19T02:07:53.341Z,20.72
2019-01-19T02:08:24.984Z,20.72
2019-01-19T02:08:56.607Z,20.73
2019-01-19T02:09:28.250Z,20.76
2019-01-19T02:09:59.872Z,20.79
2019-01-19T02:10:31.505Z,20.81
2019-01-19T02:11:03.105Z,20.83
2019-01-19T02:11:34.725Z,20.84
2019-01-19T02:12:06.343Z,20.84
2019-01-19T02:12:37.964Z,20.83
2019-01-19T02:13:09.574Z,20.84
2019-01-19T02:13:41.186Z,20.85
2019-01-19T02:14:12.789Z,20.88
2019-01-19T02:14:44.451Z,20.93
2019-01-19T02:15:16.122Z,20.97
2019-01-19T02:15:47.771Z,20.99
2019-01-19T02:16:19.397Z,21.01
2019-01-19T02:16:51.010Z,21.02
2019-01-19T02:17:22.640Z,21.01
2019-01-19T02:17:54.307Z,20.85
2019-01-19T02:18:25.932Z,21.05
2019-01-19T02:18:57.551Z,21.03
2019-01-19T02:19:29.167Z,21.03
2019-01-19T02:20:00.783Z,21.02
2019-01-19T02:20:32.417Z,21.05
2019-01-19T02:21:04.078Z,21.04
2019-01-19T02:21:35.694Z,20.98
2019-01-19T02:22:07.320Z,20.90
2019-01-19T02:22:38.929Z,20.82
2019-01-19T02:23:10.553Z,20.74
2019-01-19T02:23:42.162Z,20.68
2019-01-19T02:24:13.769Z,20.62
2019-01-19T02:24:45.377Z,20.60
2019-01-19T02:25:16.987Z,20.59
2019-01-19T02:25:48.580Z,20.62
2019-01-19T02:26:20.237Z,20.61
2019-01-19T02:26:51.846Z,20.65
2019-01-19T02:27:23.487Z,20.67
2019-01-19T02:27:55.093Z,20.67
2019-01-19T02:28:26.702Z,20.68
2019-01-19T02:28:58.318Z,20.70
2019-01-19T02:29:29.926Z,20.71
2019-01-19T02:30:01.536Z,20.73
2019-01-19T02:30:33.176Z,20.73
2019-01-19T02:31:04.810Z,20.75
2019-01-19T02:31:36.510Z,20.75
2019-01-19T02:32:08.122Z,20.52
2019-01-19T02:32:39.992Z,20.75
2019-01-19T02:33:11.652Z,20.75
2019-01-19T02:33:43.289Z,20.74
2019-01-19T02:34:14.904Z,20.56
2019-01-19T02:34:46.535Z,20.75
2019-01-19T02:35:18.140Z,20.75
2019-01-19T02:35:49.764Z,20.75
2019-01-19T02:36:21.640Z,20.73
2019-01-19T02:36:53.263Z,20.74
2019-01-19T02:37:24.896Z,20.73
2019-01-19T02:37:56.544Z,20.73
2019-01-19T02:38:28.417Z,20.75
2019-01-19T02:39:00.045Z,20.75
2019-01-19T02:39:31.672Z,20.64
2019-01-19T02:40:03.310Z,20.73
2019-01-19T02:40:35.170Z,20.73
2019-01-19T02:41:06.797Z,20.73
2019-01-19T02:41:38.660Z,20.74
2019-01-19T02:42:10.289Z,20.74
2019-01-19T02:42:41.911Z,20.73
2019-01-19T02:43:13.542Z,20.72
2019-01-19T02:43:45.176Z,20.71
2019-01-19T02:44:16.834Z,20.71
2019-01-19T02:44:48.469Z,20.70
2019-01-19T02:45:20.098Z,20.59
2019-01-19T02:45:51.723Z,20.70
2019-01-19T02:46:23.347Z,20.69
2019-01-19T02:46:54.962Z,20.68
2019-01-19T02:47:26.592Z,20.68
2019-01-19T02:47:58.262Z,20.67
2019-01-19T02:48:29.865Z,20.68
2019-01-19T02:49:01.798Z,20.67
2019-01-19T02:49:33.442Z,20.67
2019-01-19T02:50:05.062Z,20.67
2019-01-19T02:50:36.726Z,20.67
2019-01-19T02:51:08.347Z,20.66
2019-01-19T02:51:39.964Z,20.67
2019-01-19T02:52:11.577Z,20.68
2019-01-19T02:52:43.210Z,20.68
2019-01-19T02:53:14.822Z,20.67
2019-01-19T02:53:46.443Z,20.66
2019-01-19T02:54:18.098Z,20.66
2019-01-19T02:54:49.708Z,20.66
2019-01-19T02:55:21.380Z,20.63
2019-01-19T02:55:53.011Z,20.65
2019-01-19T02:56:24.634Z,20.65
2019-01-19T02:56:56.255Z,20.64
2019-01-19T02:57:27.863Z,20.62
2019-01-19T02:57:59.508Z,20.62
2019-01-19T02:58:31.179Z,20.60
2019-01-19T02:59:02.802Z,20.59
2019-01-19T02:59:34.419Z,20.57
2019-01-19T03:00:06.062Z,20.56
2019-01-19T03:00:37.725Z,20.56
2019-01-19T03:01:09.351Z,20.55
2019-01-19T03:01:41.577Z,20.54
2019-01-19T03:02:13.198Z,20.55
2019-01-19T03:02:44.848Z,20.54
2019-01-19T03:03:16.471Z,20.54
2019-01-19T03:03:48.101Z,20.53
2019-01-19T03:04:19.722Z,20.54
2019-01-19T03:04:51.333Z,20.54
2019-01-19T03:05:22.944Z,20.55
2019-01-19T03:05:56.183Z,20.55
2019-01-19T03:06:26.270Z,20.58
2019-01-19T03:06:57.878Z,20.58
2019-01-19T03:07:29.489Z,20.61
2019-01-19T03:08:01.107Z,20.61
2019-01-19T03:08:32.719Z,20.61
2019-01-19T03:09:04.330Z,20.60
2019-01-19T03:09:35.948Z,20.59
2019-01-19T03:10:07.562Z,20.59
2019-01-19T03:10:39.185Z,20.57
2019-01-19T03:11:10.861Z,20.58
2019-01-19T03:11:42.514Z,20.59
2019-01-19T03:12:14.119Z,20.59
2019-01-19T03:12:45.732Z,20.59
2019-01-19T03:13:17.354Z,20.59
2019-01-19T03:13:48.980Z,20.61
2019-01-19T03:14:20.586Z,20.61
2019-01-19T03:14:52.212Z,20.62
2019-01-19T03:15:23.840Z,20.63
2019-01-19T03:15:55.462Z,20.64
2019-01-19T03:16:27.064Z,20.66
2019-01-19T03:16:58.698Z,20.68
2019-01-19T03:17:30.316Z,20.69
2019-01-19T03:18:01.962Z,20.67
2019-01-19T03:18:33.584Z,20.68
2019-01-19T03:19:05.199Z,20.69
2019-01-19T03:19:36.810Z,20.69
2019-01-19T03:20:08.434Z,20.68
2019-01-19T03:20:40.050Z,20.68
2019-01-19T03:21:11.668Z,20.66
2019-01-19T03:21:43.264Z,20.56
2019-01-19T03:22:14.889Z,20.67
2019-01-19T03:22:46.516Z,20.67
2019-01-19T03:23:18.175Z,20.66
2019-01-19T03:23:49.795Z,20.66
2019-01-19T03:24:21.410Z,20.65
2019-01-19T03:24:53.022Z,20.63
2019-01-19T03:25:24.651Z,20.64
2019-01-19T03:25:56.266Z,20.64
2019-01-19T03:26:27.876Z,20.63
2019-01-19T03:26:59.496Z,20.65
2019-01-19T03:27:31.112Z,20.64
2019-01-19T03:28:02.718Z,20.65
2019-01-19T03:28:34.367Z,20.64
2019-01-19T03:29:05.986Z,20.64
2019-01-19T03:29:37.616Z,20.64
2019-01-19T03:30:09.250Z,20.63
2019-01-19T03:30:40.871Z,20.64
2019-01-19T03:31:12.493Z,20.63
2019-01-19T03:31:44.117Z,20.63
2019-01-19T03:32:15.738Z,20.62
2019-01-19T03:32:47.366Z,20.63
2019-01-19T04:20:59.503Z,19.76
2019-01-19T04:21:31.131Z,19.77
2019-01-19T04:22:02.722Z,19.80
2019-01-19T04:22:34.324Z,19.81
2019-01-19T04:23:05.927Z,19.82
2019-01-19T04:23:37.542Z,19.85
2019-01-19T04:24:09.131Z,19.87
2019-01-19T04:24:40.763Z,19.89
2019-01-19T04:25:12.361Z,19.92
2019-01-19T04:25:43.971Z,19.96
2019-01-19T04:26:15.577Z,20.00
2019-01-19T04:26:47.243Z,19.83
2019-01-19T04:27:18.836Z,20.07
2019-01-19T04:27:50.436Z,20.11
2019-01-19T04:28:22.045Z,20.15
2019-01-19T04:28:53.652Z,20.19
2019-01-19T04:29:25.263Z,20.22
2019-01-19T04:29:56.911Z,20.27
2019-01-19T04:30:28.526Z,20.32
2019-01-19T04:31:00.146Z,20.36
2019-01-19T04:31:31.755Z,20.20
2019-01-19T04:32:03.351Z,20.45
2019-01-19T04:32:34.957Z,20.50
2019-01-19T04:33:06.571Z,20.52
2019-01-19T04:33:38.188Z,20.56
2019-01-19T04:34:09.786Z,20.58
2019-01-19T04:34:41.369Z,20.58
2019-01-19T04:35:12.984Z,20.64
2019-01-19T04:35:44.574Z,20.68
2019-01-19T04:36:21.515Z,20.71
2019-01-19T04:36:47.844Z,20.75
2019-01-19T04:37:19.450Z,20.79
2019-01-19T04:37:51.064Z,20.82
2019-01-19T04:38:22.672Z,20.84
2019-01-19T04:38:54.275Z,20.85
2019-01-19T04:39:25.887Z,20.89
2019-01-19T04:39:57.557Z,20.89
2019-01-19T04:40:29.170Z,20.94
2019-01-19T04:41:00.752Z,20.97
2019-01-19T04:41:32.442Z,20.99
2019-01-19T04:42:04.044Z,21.02
2019-01-19T04:42:35.635Z,21.04
2019-01-19T04:43:07.255Z,21.06
2019-01-19T04:43:38.881Z,21.11
2019-01-19T04:44:10.492Z,21.12
2019-01-19T04:44:42.101Z,21.15
2019-01-19T04:45:13.756Z,21.19
2019-01-19T04:45:45.395Z,21.21
2019-01-19T04:46:17.008Z,21.22
2019-01-19T04:46:48.617Z,21.25
2019-01-19T04:47:20.214Z,21.27
2019-01-19T04:47:51.806Z,21.28
2019-01-19T04:48:23.482Z,21.28
2019-01-19T04:48:55.102Z,21.30
2019-01-19T04:49:26.713Z,21.30
2019-01-19T04:49:58.341Z,21.31
2019-01-19T04:50:29.967Z,21.32
2019-01-19T04:51:01.563Z,21.33
2019-01-19T04:51:33.161Z,21.32
2019-01-19T04:52:04.776Z,21.33
2019-01-19T04:52:36.370Z,21.32
2019-01-19T04:53:07.977Z,21.33
2019-01-19T04:53:39.598Z,21.34
2019-01-19T04:54:11.203Z,21.35
2019-01-19T04:54:42.836Z,21.35
2019-01-19T04:55:14.429Z,21.35
2019-01-19T04:55:46.020Z,21.35
2019-01-19T04:56:17.628Z,21.35
2019-01-19T04:56:49.225Z,21.35
2019-01-19T04:57:20.805Z,21.36
2019-01-19T04:57:52.398Z,21.25
2019-01-19T04:58:24.000Z,21.39
2019-01-19T04:58:55.612Z,21.36
2019-01-19T04:59:27.205Z,21.37
2019-01-19T04:59:58.826Z,21.38
2019-01-19T05:00:30.422Z,21.38
2019-01-19T05:01:02.021Z,21.38
2019-01-19T05:01:33.626Z,21.37
2019-01-19T05:02:05.224Z,21.36
2019-01-19T05:02:36.814Z,21.36
2019-01-19T05:03:08.420Z,21.35
2019-01-19T05:03:40.032Z,21.34
2019-01-19T05:04:11.636Z,21.33
2019-01-19T05:04:43.291Z,21.32
2019-01-19T05:05:14.886Z,21.27
2019-01-19T05:05:46.488Z,21.27
2019-01-19T05:06:18.095Z,21.26
2019-01-19T05:06:49.703Z,21.25
2019-01-19T05:07:21.306Z,21.21
2019-01-19T05:07:52.901Z,21.19
2019-01-19T05:08:24.494Z,21.20
2019-01-19T05:08:56.086Z,21.19
2019-01-19T05:09:27.678Z,21.17
2019-01-19T05:09:59.307Z,21.16
2019-01-19T05:10:30.898Z,21.14
2019-01-19T05:11:02.495Z,21.13
2019-01-19T05:11:34.104Z,21.11
2019-01-19T05:12:05.698Z,21.10
2019-01-19T05:12:37.300Z,21.09
2019-01-19T05:13:08.898Z,21.07
2019-01-19T05:13:40.480Z,21.06
2019-01-19T05:14:12.073Z,21.05
2019-01-19T05:14:43.672Z,21.03
2019-01-19T05:15:15.319Z,21.01
2019-01-19T05:15:46.923Z,21.00
2019-01-19T05:16:18.517Z,20.96
2019-01-19T05:16:50.124Z,20.94
2019-01-19T05:17:21.717Z,20.92
2019-01-19T05:17:53.328Z,20.91
2019-01-19T05:18:24.922Z,20.91
2019-01-19T05:18:56.505Z,20.87
2019-01-19T05:19:28.102Z,20.87
2019-01-19T05:19:59.712Z,20.86
2019-01-19T05:20:31.345Z,20.86
2019-01-19T05:21:02.939Z,20.85
2019-01-19T05:21:34.521Z,20.82
2019-01-19T05:22:06.117Z,20.82
2019-01-19T05:22:37.705Z,20.81
2019-01-19T05:23:10.815Z,20.80
2019-01-19T05:23:40.976Z,20.80
2019-01-19T05:24:12.570Z,20.77
2019-01-19T05:24:44.168Z,20.76
2019-01-19T05:25:15.761Z,20.75
2019-01-19T05:25:47.408Z,20.73
2019-01-19T05:26:19.020Z,20.69
2019-01-19T05:26:50.637Z,20.69
2019-01-19T05:27:22.235Z,20.64
2019-01-19T05:27:53.825Z,20.63
2019-01-19T05:28:25.429Z,20.61
2019-01-19T05:28:57.022Z,20.59
2019-01-19T05:29:28.627Z,20.57
2019-01-19T05:30:00.248Z,20.55
2019-01-19T05:30:31.892Z,20.51
2019-01-19T05:31:03.506Z,20.50
2019-01-19T05:31:35.107Z,20.49
2019-01-19T05:32:06.720Z,20.43
2019-01-19T05:32:38.319Z,20.43
2019-01-19T05:33:09.912Z,20.40
2019-01-19T05:33:41.500Z,20.41
2019-01-19T05:34:13.104Z,20.38
2019-01-19T05:34:44.701Z,20.37
2019-01-19T05:35:16.331Z,20.35
2019-01-19T05:35:47.955Z,20.33
2019-01-19T05:36:19.564Z,20.30
2019-01-19T05:36:51.157Z,20.28
2019-01-19T05:37:22.768Z,20.28
2019-01-19T05:37:54.404Z,20.23
2019-01-19T05:38:26.011Z,20.24
2019-01-19T05:38:57.610Z,20.23
2019-01-19T05:39:29.216Z,20.22
2019-01-19T05:40:00.840Z,20.20
2019-01-19T05:40:32.433Z,20.19
2019-01-19T05:41:04.026Z,20.17
2019-01-19T05:41:35.617Z,20.16
2019-01-19T05:42:07.214Z,20.14
2019-01-19T05:42:38.796Z,20.13
2019-01-19T05:43:10.376Z,20.12
2019-01-19T05:43:41.984Z,20.10
2019-01-19T05:44:13.587Z,20.10
2019-01-19T05:44:45.202Z,20.08
2019-01-19T05:45:16.820Z,20.06
2019-01-19T05:45:48.532Z,20.05
2019-01-19T05:46:21.449Z,20.03
2019-01-19T05:46:51.803Z,20.03
2019-01-19T05:47:23.415Z,20.02
2019-01-19T05:47:55.000Z,20.01
2019-01-19T05:48:26.584Z,20.01
2019-01-19T05:48:58.176Z,20.00
2019-01-19T05:49:29.765Z,19.99
2019-01-19T05:50:01.394Z,19.98
2019-01-19T05:50:32.997Z,19.96
2019-01-19T05:51:04.594Z,19.93
2019-01-19T05:51:36.201Z,19.92
2019-01-19T05:52:07.797Z,19.90
2019-01-19T05:52:39.400Z,19.89
2019-01-19T05:53:11.009Z,19.88
2019-01-19T05:53:42.608Z,19.86
2019-01-19T05:54:14.194Z,19.86
2019-01-19T05:54:45.786Z,19.86
2019-01-19T05:55:17.426Z,19.84
2019-01-19T05:55:49.018Z,19.84
2019-01-19T05:56:20.624Z,19.82
2019-01-19T05:56:52.227Z,19.82
2019-01-19T05:57:23.821Z,19.85
2019-01-19T05:57:55.429Z,19.85
2019-01-19T05:58:27.022Z,19.86
2019-01-19T05:58:58.632Z,19.87
2019-01-19T05:59:30.339Z,19.87
2019-01-19T06:00:01.903Z,19.88
2019-01-19T06:00:33.538Z,19.91
2019-01-19T06:01:05.129Z,19.90
2019-01-19T06:01:36.722Z,19.95
2019-01-19T06:02:08.309Z,19.98
2019-01-19T06:02:39.921Z,20.01
2019-01-19T06:03:11.518Z,20.04
2019-01-19T06:03:43.109Z,20.07
2019-01-19T06:04:14.712Z,20.09
2019-01-19T06:04:46.321Z,20.13
2019-01-19T06:05:17.908Z,20.16
2019-01-19T06:05:49.517Z,20.19
2019-01-19T06:06:21.125Z,20.22
2019-01-19T06:06:52.722Z,20.26
2019-01-19T06:07:24.314Z,20.30
2019-01-19T06:07:55.911Z,20.34
2019-01-19T06:08:27.523Z,20.37
2019-01-19T06:08:59.104Z,20.42
2019-01-19T06:09:30.704Z,20.45
2019-01-19T06:10:02.312Z,20.54
2019-01-19T06:10:33.906Z,20.60
2019-01-19T06:11:05.497Z,20.64
2019-01-19T06:11:37.101Z,20.68
2019-01-19T06:12:08.684Z,20.72
2019-01-19T06:12:40.277Z,20.75
2019-01-19T06:13:11.871Z,20.80
2019-01-19T06:13:43.467Z,20.84
2019-01-19T06:14:15.067Z,20.86
2019-01-19T06:14:46.676Z,20.88
2019-01-19T06:15:18.319Z,20.94
2019-01-19T06:15:49.928Z,20.98
2019-01-19T06:16:21.541Z,21.01
2019-01-19T06:16:53.156Z,21.03
2019-01-19T06:17:24.749Z,20.83
2019-01-19T06:17:56.393Z,21.07
2019-01-19T06:18:27.991Z,21.10
2019-01-19T06:18:59.651Z,21.12
2019-01-19T06:19:31.253Z,21.14
2019-01-19T06:20:02.853Z,21.16
2019-01-19T06:20:34.435Z,21.20
2019-01-19T06:21:06.048Z,21.25
2019-01-19T06:21:37.645Z,21.28
2019-01-19T06:22:09.238Z,21.31
2019-01-19T06:22:40.844Z,21.11
2019-01-19T06:23:12.450Z,21.36
2019-01-19T06:23:44.044Z,21.37
2019-01-19T06:24:15.638Z,21.38
2019-01-19T06:24:47.244Z,21.40
2019-01-19T06:25:18.865Z,21.41
2019-01-19T06:25:50.527Z,21.40
2019-01-19T06:26:22.131Z,21.40
2019-01-19T06:26:53.739Z,21.41
2019-01-19T06:27:25.338Z,21.42
2019-01-19T06:27:56.934Z,21.43
2019-01-19T06:28:28.526Z,21.41
2019-01-19T06:29:00.118Z,21.44
2019-01-19T06:29:31.753Z,21.45
2019-01-19T06:30:03.359Z,21.47
2019-01-19T06:30:34.944Z,21.49
2019-01-19T06:31:07.171Z,21.52
2019-01-19T06:31:38.235Z,21.54
2019-01-19T06:32:09.831Z,21.55
2019-01-19T06:32:41.422Z,21.57
2019-01-19T06:33:13.032Z,21.55
2019-01-19T06:33:44.625Z,21.54
2019-01-19T06:34:16.227Z,21.53
2019-01-19T06:34:47.823Z,21.52
2019-01-19T06:35:19.449Z,21.51
2019-01-19T06:35:51.046Z,21.49
2019-01-19T06:36:22.713Z,21.50
2019-01-19T06:36:55.161Z,21.50
2019-01-19T06:37:25.946Z,21.49
2019-01-19T06:37:57.558Z,21.48
2019-01-19T06:38:29.178Z,21.47
2019-01-19T06:39:00.791Z,21.46
2019-01-19T06:39:32.390Z,21.43
2019-01-19T06:40:04.036Z,21.41
2019-01-19T06:40:35.656Z,21.40
2019-01-19T06:41:07.271Z,21.38
2019-01-19T06:41:38.856Z,21.36
2019-01-19T06:42:10.463Z,21.35
2019-01-19T06:42:42.072Z,21.31
2019-01-19T06:43:13.684Z,21.30
2019-01-19T06:43:45.289Z,21.29
2019-01-19T06:44:16.883Z,21.26
2019-01-19T06:44:48.484Z,21.24
2019-01-19T06:45:20.122Z,21.20
2019-01-19T06:45:51.750Z,21.19
2019-01-19T06:46:23.362Z,21.16
2019-01-19T06:46:54.962Z,21.13
2019-01-19T06:47:26.553Z,21.10
2019-01-19T06:47:58.145Z,21.06
2019-01-19T06:48:29.741Z,21.04
2019-01-19T06:49:01.352Z,21.00
2019-01-19T06:49:32.941Z,20.99
2019-01-19T06:50:04.548Z,20.95
2019-01-19T06:50:36.143Z,20.92
2019-01-19T06:51:07.752Z,20.89
2019-01-19T06:51:39.356Z,20.87
2019-01-19T06:52:11.097Z,20.84
2019-01-19T06:52:42.618Z,20.83
2019-01-19T06:53:14.210Z,20.80
2019-01-19T06:53:45.810Z,20.78
2019-01-19T06:54:17.429Z,20.76
2019-01-19T06:54:49.029Z,20.74
2019-01-19T06:55:20.631Z,20.72
2019-01-19T06:55:52.239Z,20.70
2019-01-19T06:56:23.834Z,20.68
2019-01-19T06:56:55.440Z,20.65
2019-01-19T06:57:27.051Z,20.63
2019-01-19T06:57:58.657Z,20.63
2019-01-19T06:58:31.250Z,20.58
2019-01-19T06:59:01.902Z,20.59
2019-01-19T06:59:33.588Z,20.54
2019-01-19T07:00:05.183Z,20.55
2019-01-19T07:00:36.802Z,20.51
2019-01-19T07:01:08.434Z,20.50
2019-01-19T07:01:40.030Z,20.49
2019-01-19T07:02:11.636Z,20.47
2019-01-19T07:02:43.302Z,20.47
2019-01-19T07:03:14.886Z,20.46
2019-01-19T07:03:46.468Z,20.44
2019-01-19T07:04:18.072Z,20.40
2019-01-19T07:04:49.679Z,20.38
2019-01-19T07:05:21.292Z,20.36
2019-01-19T07:05:52.926Z,20.35
2019-01-19T07:06:24.535Z,20.32
2019-01-19T07:07:02.524Z,20.30
2019-01-19T07:07:27.809Z,20.27
2019-01-19T07:07:59.401Z,20.25
2019-01-19T07:08:31.004Z,20.23
2019-01-19T07:09:02.597Z,20.19
2019-01-19T07:09:34.189Z,20.20
2019-01-19T07:10:05.782Z,20.19
2019-01-19T07:10:37.378Z,20.18
2019-01-19T07:11:09.450Z,20.14
2019-01-19T07:11:41.058Z,20.15
2019-01-19T07:12:12.654Z,20.14
2019-01-19T07:12:44.259Z,20.13
2019-01-19T07:13:15.854Z,20.11
2019-01-19T07:13:47.459Z,20.10
2019-01-19T07:14:19.054Z,20.09
2019-01-19T07:14:50.649Z,20.07
2019-01-19T07:15:22.308Z,20.06
2019-01-19T07:15:53.921Z,20.05
2019-01-19T07:16:25.548Z,20.03
2019-01-19T07:16:57.169Z,20.02
2019-01-19T07:17:28.761Z,20.01
2019-01-19T07:18:00.422Z,20.00
2019-01-19T07:18:32.017Z,19.98
2019-01-19T07:19:03.610Z,19.98
2019-01-19T07:19:35.206Z,19.97
2019-01-19T07:20:06.812Z,19.96
2019-01-19T07:20:38.410Z,19.94
2019-01-19T07:21:09.991Z,19.93
2019-01-19T07:21:41.618Z,19.93
2019-01-19T07:22:13.228Z,19.91
2019-01-19T07:22:44.905Z,19.90
2019-01-19T07:23:16.515Z,19.89
2019-01-19T07:23:48.110Z,19.87
2019-01-19T07:24:19.711Z,19.88
2019-01-19T07:24:51.306Z,19.88
2019-01-19T07:25:22.903Z,19.87
2019-01-19T07:25:54.545Z,19.86
2019-01-19T07:26:26.147Z,19.85
2019-01-19T07:26:57.746Z,19.84
2019-01-19T07:27:29.351Z,19.84
2019-01-19T07:28:01.013Z,19.83
2019-01-19T07:28:32.610Z,19.82
2019-01-19T07:29:04.206Z,19.83
2019-01-19T07:29:35.803Z,19.83
2019-01-19T07:30:07.401Z,19.83
2019-01-19T07:30:39.013Z,19.84
2019-01-19T07:31:10.634Z,19.85
2019-01-19T07:31:42.230Z,19.86
2019-01-19T07:32:13.819Z,19.88
2019-01-19T07:32:45.395Z,19.89
2019-01-19T07:33:16.996Z,19.91
2019-01-19T07:33:48.589Z,19.92
2019-01-19T07:34:20.190Z,19.97
2019-01-19T07:34:51.795Z,20.00